Zprávy METAR z letišť v České republice

LKPR - Praha Ruzyně, Česká republika
Vzdálenost od této stanice: SSV 13km
Aktualizováno: 17.11.2018 03:00
 
Teplota vzduchu: 0°C
Chlad větru: -3°C
Vítr: S 9 km/h
Rosný bod: -1°C
Vlhkost vzduchu: 93%
Tlak vzduchu: 1033 hPa
Oblačnost: oblačno
Viditelnost: 8 km
2018/11/17 02:00 LKPR 170200Z 01005KT 8000 NSC M00/M01 Q1033 NOSIG
LKTB - Brno Tuřany, Česká republika
Vzdálenost od této stanice: VJV 203km
Aktualizováno: 17.11.2018 03:00
 
Teplota vzduchu: 2°C
Chlad větru: -1°C
Vítr: SV 11 km/h
Rosný bod: -1°C
Vlhkost vzduchu: 81%
Tlak vzduchu: 1033 hPa
Stav počasí: Jasno
Oblačnost: jasná obloha
Viditelnost: více než 10 km
2018/11/17 02:00 LKTB 170200Z 05006KT CAVOK 02/M01 Q1033 NOSIG
 
LKKV - Karlovy Vary, Česká republika
Vzdálenost od této stanice: ZSZ 95km
Aktualizováno: 17.11.2018 03:00
 
Teplota vzduchu: -2°C
Chlad větru: -6°C
Vítr: V 7 km/h
Rosný bod: -2°C
Vlhkost vzduchu: 100%
Tlak vzduchu: 1031 hPa
Stav počasí: chuchvalce mlha
Oblačnost: oblačno
Viditelnost: 10 km
2018/11/17 02:00 LKKV 170200Z 09004KT 9999 BCFG NSC M02/M02 Q1031
LKMT - Ostrava Mošnov, Česká republika
Vzdálenost od této stanice: V 283km
Aktualizováno: 17.11.2018 03:00
 
Teplota vzduchu: -1°C
Chlad větru: -6°C
Vítr: SSV 13 km/h
Rosný bod: -3°C
Vlhkost vzduchu: 86%
Tlak vzduchu: 1035 hPa
Stav počasí: Jasno
Oblačnost: jasná obloha
Viditelnost: více než 10 km
2018/11/17 02:00 LKMT 170200Z 02007KT CAVOK M01/M03 Q1035 NOSIG
 
LKPD - Pardubice, Česká republika
Vzdálenost od této stanice: V 109km
Aktualizováno: 17.11.2018 03:00
 
Teplota vzduchu: -3°C
Vítr: SSV 6 km/h
Rosný bod: -4°C
Vlhkost vzduchu: 93%
Tlak vzduchu: 1034 hPa
Stav počasí: Jasno
Oblačnost: jasná obloha
Viditelnost: více než 10 km
2018/11/17 02:00 LKPD 170200Z 02003KT CAVOK M03/M04 Q1034 RMK BLACK
LKKB - Praha Kbely, Česká republika
Vzdálenost od této stanice: VSV 27km
Aktualizováno: 17.11.2018 03:00
 
Teplota vzduchu: 0°C
Vítr: proměnlivý 4 km/h
Rosný bod: -2°C
Vlhkost vzduchu: 87%
Tlak vzduchu: 1033 hPa
Stav počasí: Jasno
Oblačnost: jasná obloha
Viditelnost: více než 10 km
2018/11/17 02:00 LKKB 170200Z VRB02KT CAVOK M00/M02 Q1033
 
LKCV - Čáslav, Česká republika
Vzdálenost od této stanice: V 85km
Aktualizováno: 17.11.2018 03:00
 
Teplota vzduchu: -3°C
Vítr: proměnlivý 6 km/h
Rosný bod: -4°C
Vlhkost vzduchu: 93%
Tlak vzduchu: 1033 hPa
Stav počasí: Jasno
Oblačnost: jasná obloha
Viditelnost: více než 10 km
2018/11/17 02:00 LKCV 170200Z VRB03KT CAVOK M03/M04 Q1033 NOSIG RMK BLU BLU
LKNA - Náměšť n. Osl., Česká republika
Vzdálenost od této stanice: VJV 166km
Aktualizováno: 17.11.2018 03:00
 
Teplota vzduchu: 0°C
Chlad větru: -4°C
Vítr: SV 15 km/h
Rosný bod: -2°C
Vlhkost vzduchu: 87%
Tlak vzduchu: 1032 hPa
Stav počasí: Jasno
Oblačnost: jasná obloha
Viditelnost: více než 10 km
2018/11/17 02:00 LKNA 170200Z 04008KT CAVOK M00/M02 Q1032 RMK BLU
 
LKLN - Plzeň Líně, Česká republika
Vzdálenost od této stanice: ZJZ 76km
Aktualizováno: 17.11.2018 03:00
 
Teplota vzduchu: -1°C
Vítr: proměnlivý 4 km/h
Rosný bod: -1°C
Vlhkost vzduchu: 100%
Tlak vzduchu: 1032 hPa
Stav počasí: opar
Oblačnost: jasno
Viditelnost: 5 km
2018/11/17 02:00 LKLN 170200Z AUTO VRB02KT 5000 BR NCD M01/M01 Q1032
LKVO - Vodochody, Česká republika
Vzdálenost od této stanice: SSV 28km
Aktualizováno: 16.11.2018 16:00
Není aktuální
 
Teplota vzduchu: 3°C
Vítr: proměnlivý 4 km/h
Rosný bod: 1°C
Vlhkost vzduchu: 87%
Tlak vzduchu: 1032 hPa
Stav počasí: částečně mlha
Oblačnost: oblačno
Viditelnost: 9 km
2018/11/16 15:00 LKVO 161500Z VRB02KT 9000 0600W PRFG NSC 03/01 Q1032

Metar display script od Saratoga-Weather.org
upravil a přeložil Miloš Jiřík